createdAt,value
2018-08-07T00:00:26.443Z,7.43
2018-08-07T00:02:54.986Z,6.60
2018-08-07T00:05:23.394Z,7.90
2018-08-07T00:07:53.081Z,7.27
2018-08-07T00:10:22.752Z,7.47
2018-08-07T00:12:50.841Z,7.20
2018-08-07T00:15:19.815Z,6.40
2018-08-07T00:17:48.292Z,6.57
2018-08-07T00:20:17.616Z,6.87
2018-08-07T00:22:46.550Z,7.10
2018-08-07T00:25:15.107Z,6.90
2018-08-07T00:27:43.791Z,7.33
2018-08-07T00:30:13.644Z,7.70
2018-08-07T00:32:42.114Z,7.30
2018-08-07T00:35:16.262Z,7.60
2018-08-07T00:37:45.038Z,7.27
2018-08-07T00:40:15.642Z,7.53
2018-08-07T00:42:44.823Z,7.07
2018-08-07T00:45:15.908Z,7.60
2018-08-07T00:47:44.044Z,7.60
2018-08-07T00:50:15.266Z,7.87
2018-08-07T00:52:44.971Z,7.40
2018-08-07T00:55:13.494Z,7.57
2018-08-07T00:57:41.991Z,7.60
2018-08-07T01:00:11.903Z,7.30
2018-08-07T01:02:40.411Z,7.13
2018-08-07T01:05:11.596Z,7.67
2018-08-07T01:07:40.206Z,7.10
2018-08-07T01:10:11.122Z,7.50
2018-08-07T01:12:39.578Z,7.87
2018-08-07T01:15:12.782Z,8.43
2018-08-07T01:17:41.310Z,7.93
2018-08-07T01:20:12.866Z,7.90
2018-08-07T01:22:41.788Z,8.60
2018-08-07T01:25:13.770Z,7.90
2018-08-07T01:27:42.151Z,8.77
2018-08-07T01:30:13.240Z,7.63
2018-08-07T01:32:41.582Z,9.10
2018-08-07T01:35:09.963Z,8.50
2018-08-07T01:37:38.969Z,7.83
2018-08-07T01:40:09.033Z,8.23
2018-08-07T01:42:37.403Z,9.27
2018-08-07T01:45:06.138Z,8.43
2018-08-07T01:47:34.492Z,8.47
2018-08-07T01:50:03.041Z,8.77
2018-08-07T01:52:31.462Z,8.93
2018-08-07T01:54:59.825Z,8.20
2018-08-07T01:57:28.374Z,8.10
2018-08-07T01:59:56.709Z,9.10
2018-08-07T02:02:25.059Z,9.57
2018-08-07T02:04:53.606Z,9.43
2018-08-07T02:07:21.657Z,8.37
2018-08-07T02:09:50.003Z,9.30
2018-08-07T02:12:18.516Z,9.20
2018-08-07T02:14:46.878Z,8.67
2018-08-07T02:17:15.290Z,8.47
2018-08-07T02:19:43.656Z,8.53
2018-08-07T02:22:12.008Z,8.50
2018-08-07T02:24:40.516Z,8.90
2018-08-07T02:27:08.882Z,9.03
2018-08-07T02:29:37.220Z,8.80
2018-08-07T02:32:05.620Z,8.83
2018-08-07T02:34:33.954Z,8.53
2018-08-07T02:37:02.386Z,9.80
2018-08-07T02:39:30.738Z,9.50
2018-08-07T02:41:59.167Z,9.30
2018-08-07T02:44:27.522Z,10.30
2018-08-07T02:46:55.885Z,9.33
2018-08-07T02:49:24.310Z,10.33
2018-08-07T02:51:52.671Z,10.30
2018-08-07T02:54:21.002Z,10.37
2018-08-07T02:56:49.394Z,10.60
2018-08-07T02:59:17.725Z,10.20
2018-08-07T03:01:46.057Z,10.83
2018-08-07T03:04:14.435Z,9.60
2018-08-07T03:06:42.795Z,10.93
2018-08-07T03:09:12.019Z,10.13
2018-08-07T03:11:40.747Z,9.60
2018-08-07T03:14:09.161Z,9.30
2018-08-07T03:16:37.627Z,10.53
2018-08-07T03:19:05.969Z,11.10
2018-08-07T03:21:34.381Z,10.47
2018-08-07T03:24:02.807Z,10.00
2018-08-07T03:26:31.261Z,11.10
2018-08-07T03:28:59.686Z,10.20
2018-08-07T03:31:28.238Z,10.63
2018-08-07T03:33:56.607Z,10.63
2018-08-07T03:36:24.938Z,10.77
2018-08-07T03:38:53.308Z,11.90
2018-08-07T03:41:21.666Z,10.47
2018-08-07T03:43:50.062Z,11.57
2018-08-07T03:46:18.397Z,10.43
2018-08-07T03:48:46.774Z,11.73
2018-08-07T03:51:15.101Z,10.73
2018-08-07T03:53:43.518Z,12.10
2018-08-07T03:56:11.857Z,11.77
2018-08-07T03:58:40.210Z,11.23
2018-08-07T04:01:08.595Z,10.83
2018-08-07T04:03:36.997Z,10.83
2018-08-07T04:06:05.514Z,12.17
2018-08-07T04:08:33.847Z,12.40
2018-08-07T04:11:02.185Z,10.77
2018-08-07T04:13:30.581Z,12.00
2018-08-07T04:15:59.710Z,11.33
2018-08-07T04:18:28.137Z,13.00
2018-08-07T04:20:56.666Z,12.40
2018-08-07T04:23:24.986Z,12.37
2018-08-07T04:25:53.338Z,14.73
2018-08-07T04:28:21.717Z,13.60
2018-08-07T04:30:50.054Z,12.10
2018-08-07T04:33:18.425Z,12.50
2018-08-07T04:35:46.797Z,12.63
2018-08-07T04:38:15.137Z,11.87
2018-08-07T04:40:43.538Z,12.83
2018-08-07T04:43:12.057Z,12.87
2018-08-07T04:45:40.404Z,12.83
2018-08-07T04:48:08.746Z,12.40
2018-08-07T04:50:37.148Z,13.67
2018-08-07T04:53:05.628Z,12.10
2018-08-07T04:55:34.070Z,12.50
2018-08-07T04:58:02.573Z,12.60
2018-08-07T05:00:31.009Z,12.70
2018-08-07T05:02:59.592Z,12.37
2018-08-07T05:05:28.471Z,11.97
2018-08-07T05:07:56.837Z,14.47
2018-08-07T05:10:25.243Z,21.23
2018-08-07T05:12:53.513Z,23.77
2018-08-07T05:15:21.842Z,13.80
2018-08-07T05:17:50.233Z,13.47
2018-08-07T05:20:18.646Z,12.67
2018-08-07T05:22:47.170Z,14.27
2018-08-07T05:25:15.514Z,13.00
2018-08-07T05:27:43.851Z,12.50
2018-08-07T05:30:14.665Z,13.30
2018-08-07T05:32:43.181Z,13.00
2018-08-07T05:35:12.881Z,13.40
2018-08-07T05:37:41.360Z,12.77
2018-08-07T05:40:10.529Z,14.03
2018-08-07T05:42:39.491Z,15.07
2018-08-07T05:45:09.488Z,14.53
2018-08-07T05:47:38.141Z,13.07
2018-08-07T05:50:09.547Z,13.47
2018-08-07T05:52:37.967Z,14.00
2018-08-07T05:55:06.812Z,13.80
2018-08-07T05:57:35.204Z,14.20
2018-08-07T06:00:05.281Z,14.57
2018-08-07T06:02:33.690Z,16.00
2018-08-07T06:05:02.090Z,15.40
2018-08-07T06:07:30.698Z,14.00
2018-08-07T06:09:59.119Z,15.30
2018-08-07T06:12:27.529Z,13.60
2018-08-07T06:14:55.948Z,14.37
2018-08-07T06:17:24.325Z,13.80
2018-08-07T06:19:52.739Z,14.27
2018-08-07T06:22:21.123Z,14.57
2018-08-07T06:24:49.514Z,14.80
2018-08-07T06:27:17.931Z,15.40
2018-08-07T06:29:46.298Z,15.93
2018-08-07T06:32:14.786Z,14.90
2018-08-07T06:34:43.222Z,13.20
2018-08-07T06:37:11.609Z,13.23
2018-08-07T06:39:40.001Z,14.60
2018-08-07T06:42:08.115Z,13.60
2018-08-07T06:44:36.533Z,14.53
2018-08-07T06:47:04.974Z,13.80
2018-08-07T06:49:33.410Z,14.03
2018-08-07T06:52:01.803Z,13.40
2018-08-07T06:54:30.339Z,13.40
2018-08-07T06:56:58.467Z,13.20
2018-08-07T06:59:26.796Z,14.33
2018-08-07T07:01:55.197Z,12.20
2018-08-07T07:04:23.569Z,12.90
2018-08-07T07:06:51.961Z,13.43
2018-08-07T07:09:20.327Z,13.13
2018-08-07T07:11:48.952Z,12.80
2018-08-07T07:14:17.333Z,13.27
2018-08-07T07:16:45.697Z,12.60
2018-08-07T07:19:14.089Z,12.47
2018-08-07T07:21:42.437Z,12.80
2018-08-07T07:24:10.632Z,13.20
2018-08-07T07:26:39.084Z,11.40
2018-08-07T07:29:07.453Z,11.97
2018-08-07T07:31:35.842Z,12.27
2018-08-07T07:34:04.412Z,11.37
2018-08-07T07:36:32.745Z,12.03
2018-08-07T07:39:01.139Z,11.17
2018-08-07T07:41:29.578Z,11.60
2018-08-07T07:43:57.990Z,11.20
2018-08-07T07:46:26.433Z,11.57
2018-08-07T07:48:54.858Z,11.10
2018-08-07T07:51:23.249Z,10.93
2018-08-07T07:53:51.659Z,11.30
2018-08-07T07:56:20.021Z,11.93
2018-08-07T07:58:48.518Z,12.55
2018-08-07T08:01:16.897Z,10.60
2018-08-07T08:03:45.263Z,11.53
2018-08-07T08:06:13.801Z,12.27
2018-08-07T08:08:42.161Z,11.80
2018-08-07T08:11:10.647Z,12.20
2018-08-07T08:13:38.988Z,11.50
2018-08-07T08:16:07.373Z,12.23
2018-08-07T08:18:35.828Z,12.70
2018-08-07T08:21:04.217Z,12.53
2018-08-07T08:23:32.665Z,11.35
2018-08-07T08:26:01.098Z,12.00
2018-08-07T08:28:29.570Z,12.20
2018-08-07T08:30:58.054Z,11.57
2018-08-07T08:33:26.454Z,12.60
2018-08-07T08:35:54.854Z,11.93
2018-08-07T08:38:23.275Z,12.15
2018-08-07T08:40:51.698Z,12.13
2018-08-07T08:43:20.066Z,11.50
2018-08-07T08:45:48.460Z,12.03
2018-08-07T08:48:16.902Z,11.05
2018-08-07T08:50:45.272Z,11.75
2018-08-07T08:53:13.838Z,12.05
2018-08-07T08:55:42.213Z,11.65
2018-08-07T08:58:10.586Z,12.82
2018-08-07T09:00:39.196Z,11.93
2018-08-07T09:03:07.619Z,11.80
2018-08-07T09:05:36.061Z,12.05
2018-08-07T09:08:04.894Z,11.03
2018-08-07T09:10:33.483Z,12.55
2018-08-07T09:13:02.334Z,12.13
2018-08-07T09:15:30.769Z,12.18
2018-08-07T09:17:59.426Z,12.00
2018-08-07T09:20:30.193Z,12.78
2018-08-07T09:22:59.240Z,13.15
2018-08-07T09:25:28.462Z,12.03
2018-08-07T09:27:56.774Z,12.23
2018-08-07T09:30:26.490Z,13.10
2018-08-07T09:32:55.685Z,13.53
2018-08-07T09:35:24.665Z,12.30
2018-08-07T09:37:53.298Z,13.32
2018-08-07T09:40:22.437Z,13.03
2018-08-07T09:42:52.290Z,11.57
2018-08-07T09:45:23.727Z,13.20
2018-08-07T09:47:52.147Z,14.05
2018-08-07T09:50:21.129Z,12.90
2018-08-07T09:52:49.785Z,15.78
2018-08-07T09:55:18.370Z,17.17
2018-08-07T09:57:46.755Z,15.38
2018-08-07T10:00:25.362Z,21.40
2018-08-07T10:02:57.076Z,14.38
2018-08-07T10:05:27.070Z,14.53
2018-08-07T10:07:55.359Z,14.25
2018-08-07T10:10:23.841Z,13.83
2018-08-07T10:12:52.267Z,13.62
2018-08-07T10:15:20.677Z,14.28
2018-08-07T10:17:49.287Z,12.65
2018-08-07T10:20:17.657Z,13.22
2018-08-07T10:22:46.061Z,13.85
2018-08-07T10:25:16.214Z,13.62
2018-08-07T10:27:45.840Z,14.68
2018-08-07T10:30:15.914Z,14.05
2018-08-07T10:32:44.421Z,14.28
2018-08-07T10:35:13.370Z,13.45
2018-08-07T10:37:42.498Z,14.28
2018-08-07T10:40:12.737Z,14.83
2018-08-07T10:42:41.233Z,13.27
2018-08-07T10:45:12.631Z,13.90
2018-08-07T10:47:41.609Z,13.78
2018-08-07T10:50:22.649Z,13.22
2018-08-07T10:52:51.602Z,13.27
2018-08-07T10:55:20.810Z,12.18
2018-08-07T10:57:50.873Z,12.47
2018-08-07T11:00:22.635Z,12.50
2018-08-07T11:02:51.825Z,13.28
2018-08-07T11:05:20.685Z,11.97
2018-08-07T11:07:49.070Z,11.68
2018-08-07T11:10:17.762Z,11.53
2018-08-07T11:12:46.273Z,11.38
2018-08-07T11:15:19.909Z,10.85
2018-08-07T11:17:49.225Z,12.63
2018-08-07T11:20:17.676Z,11.83
2018-08-07T11:22:47.780Z,11.88
2018-08-07T11:25:17.224Z,13.50
2018-08-07T11:27:45.649Z,11.60
2018-08-07T11:30:17.279Z,10.97
2018-08-07T11:32:46.091Z,10.80
2018-08-07T11:35:15.021Z,10.68
2018-08-07T11:37:44.752Z,12.00
2018-08-07T11:40:16.082Z,10.97
2018-08-07T11:42:45.697Z,10.40
2018-08-07T11:45:15.480Z,11.30
2018-08-07T11:47:43.544Z,11.40
2018-08-07T11:50:14.142Z,12.10
2018-08-07T11:52:42.872Z,12.10
2018-08-07T11:55:13.088Z,12.13
2018-08-07T11:57:41.733Z,10.73
2018-08-07T12:00:15.139Z,11.70
2018-08-07T12:02:43.798Z,12.00
2018-08-07T12:05:12.225Z,11.57
2018-08-07T12:07:40.794Z,11.38
2018-08-07T12:10:10.942Z,10.80
2018-08-07T12:12:39.810Z,11.60
2018-08-07T12:15:10.258Z,11.20
2018-08-07T12:17:38.941Z,12.43
2018-08-07T12:20:07.999Z,13.03
2018-08-07T12:22:36.098Z,12.25
2018-08-07T12:25:04.981Z,12.40
2018-08-07T12:27:33.411Z,11.60
2018-08-07T12:30:01.966Z,12.60
2018-08-07T12:32:30.105Z,12.03
2018-08-07T12:34:59.243Z,11.90
2018-08-07T12:37:27.734Z,12.60
2018-08-07T12:39:56.179Z,11.65
2018-08-07T12:42:24.534Z,12.82
2018-08-07T12:44:53.145Z,12.82
2018-08-07T12:47:21.510Z,12.23
2018-08-07T12:49:49.861Z,11.70
2018-08-07T12:52:18.258Z,12.88
2018-08-07T12:54:46.729Z,12.97
2018-08-07T12:57:15.106Z,12.45
2018-08-07T12:59:43.537Z,12.93
2018-08-07T13:02:11.958Z,11.80
2018-08-07T13:04:40.383Z,12.50
2018-08-07T13:07:08.763Z,13.40
2018-08-07T13:09:37.161Z,11.70
2018-08-07T13:12:05.534Z,12.30
2018-08-07T13:14:34.139Z,12.00
2018-08-07T13:17:02.518Z,12.60
2018-08-07T13:19:31.011Z,12.85
2018-08-07T13:21:59.527Z,11.33
2018-08-07T13:24:27.965Z,12.43
2018-08-07T13:26:56.549Z,13.50
2018-08-07T13:29:25.075Z,13.43
2018-08-07T13:31:53.453Z,12.83
2018-08-07T13:34:21.886Z,12.43
2018-08-07T13:36:50.270Z,12.73
2018-08-07T13:39:18.709Z,13.00
2018-08-07T13:41:47.083Z,12.85
2018-08-07T13:44:15.625Z,13.10
2018-08-07T13:46:43.973Z,12.90
2018-08-07T13:49:12.329Z,12.80
2018-08-07T13:51:40.861Z,12.63
2018-08-07T13:54:09.184Z,13.50
2018-08-07T13:56:37.541Z,12.50
2018-08-07T13:59:06.045Z,13.27
2018-08-07T14:01:34.405Z,12.40
2018-08-07T14:04:02.777Z,13.70
2018-08-07T14:06:31.172Z,14.50
2018-08-07T14:08:59.664Z,12.73
2018-08-07T14:11:28.094Z,13.47
2018-08-07T14:13:56.468Z,12.77
2018-08-07T14:16:24.933Z,12.80
2018-08-07T14:18:53.305Z,12.83
2018-08-07T14:21:21.717Z,15.60
2018-08-07T14:23:50.130Z,13.73
2018-08-07T14:26:18.554Z,12.10
2018-08-07T14:28:47.065Z,12.40
2018-08-07T14:31:15.389Z,13.27
2018-08-07T14:33:43.791Z,12.80
2018-08-07T14:36:12.172Z,13.47
2018-08-07T14:38:40.574Z,13.50
2018-08-07T14:41:08.977Z,14.13
2018-08-07T14:43:37.343Z,14.00
2018-08-07T14:46:05.997Z,12.20
2018-08-07T14:48:34.414Z,12.70
2018-08-07T14:51:02.904Z,12.77
2018-08-07T14:53:31.461Z,12.70
2018-08-07T14:55:59.877Z,14.07
2018-08-07T14:58:28.252Z,12.87
2018-08-07T15:00:56.680Z,13.00
2018-08-07T15:03:25.023Z,13.77
2018-08-07T15:05:53.437Z,14.97
2018-08-07T15:08:21.885Z,13.70
2018-08-07T15:10:50.324Z,13.50
2018-08-07T15:13:18.692Z,12.77
2018-08-07T15:15:47.269Z,13.63
2018-08-07T15:18:15.666Z,11.07
2018-08-07T15:20:44.047Z,12.30
2018-08-07T15:23:12.457Z,12.17
2018-08-07T15:25:40.833Z,12.50
2018-08-07T15:28:09.418Z,12.53
2018-08-07T15:30:37.793Z,11.13
2018-08-07T15:33:06.208Z,11.73
2018-08-07T15:35:34.613Z,12.33
2018-08-07T15:38:03.018Z,11.80
2018-08-07T15:40:31.437Z,12.80
2018-08-07T15:42:59.830Z,13.60
2018-08-07T15:45:28.425Z,12.30
2018-08-07T15:47:56.799Z,12.60
2018-08-07T15:50:25.158Z,12.03
2018-08-07T15:52:54.670Z,12.50
2018-08-07T15:55:24.542Z,11.70
2018-08-07T15:57:52.991Z,12.00
2018-08-07T16:00:24.713Z,11.83
2018-08-07T16:02:53.584Z,11.43
2018-08-07T16:05:21.936Z,11.50
2018-08-07T16:07:51.318Z,12.00
2018-08-07T16:10:20.352Z,12.63
2018-08-07T16:12:49.762Z,12.30
2018-08-07T16:15:18.345Z,11.33
2018-08-07T16:17:47.642Z,11.47
2018-08-07T16:20:16.110Z,11.53
2018-08-07T16:22:44.650Z,11.57
2018-08-07T16:25:14.162Z,10.90
2018-08-07T16:27:43.482Z,11.90
2018-08-07T16:30:13.670Z,11.30
2018-08-07T16:32:41.995Z,11.50
2018-08-07T16:35:10.308Z,11.20
2018-08-07T16:37:38.668Z,11.50
2018-08-07T16:40:10.356Z,11.43
2018-08-07T16:42:38.930Z,11.07
2018-08-07T16:45:09.657Z,11.90
2018-08-07T16:47:38.346Z,12.17
2018-08-07T16:50:08.030Z,10.60
2018-08-07T16:52:36.414Z,10.90
2018-08-07T16:55:05.436Z,10.87
2018-08-07T16:57:33.789Z,10.53
2018-08-07T17:00:02.450Z,10.20
2018-08-07T17:02:30.819Z,8.97
2018-08-07T17:04:59.345Z,9.93
2018-08-07T17:07:27.680Z,9.13
2018-08-07T17:09:56.008Z,9.13
2018-08-07T17:12:24.392Z,9.50
2018-08-07T17:14:52.801Z,9.17
2018-08-07T17:17:21.173Z,8.30
2018-08-07T17:19:49.535Z,8.57
2018-08-07T17:22:18.077Z,8.17
2018-08-07T17:24:46.328Z,8.20
2018-08-07T17:27:14.833Z,8.20
2018-08-07T17:29:43.205Z,8.50
2018-08-07T17:32:11.585Z,8.17
2018-08-07T17:34:39.947Z,7.97
2018-08-07T17:37:08.308Z,7.97
2018-08-07T17:39:36.701Z,7.80
2018-08-07T17:42:05.143Z,7.60
2018-08-07T17:44:33.520Z,7.23
2018-08-07T17:47:01.978Z,7.57
2018-08-07T17:49:30.489Z,7.67
2018-08-07T17:51:59.363Z,7.40
2018-08-07T17:54:27.768Z,6.93
2018-08-07T17:56:56.198Z,7.07
2018-08-07T17:59:24.571Z,7.20
2018-08-07T18:01:52.930Z,7.33
2018-08-07T18:04:21.312Z,7.17
2018-08-07T18:06:49.700Z,6.93
2018-08-07T18:09:18.054Z,7.30
2018-08-07T18:11:46.465Z,7.33
2018-08-07T18:14:14.935Z,6.77
2018-08-07T18:16:43.301Z,7.13
2018-08-07T18:19:11.720Z,7.73
2018-08-07T18:21:40.215Z,6.90
2018-08-07T18:24:08.604Z,6.97
2018-08-07T18:26:36.974Z,7.20
2018-08-07T18:29:05.353Z,7.50
2018-08-07T18:31:33.699Z,7.43
2018-08-07T18:34:02.310Z,7.10
2018-08-07T18:36:30.638Z,6.67
2018-08-07T18:38:59.031Z,7.57
2018-08-07T18:41:27.428Z,6.07
2018-08-07T18:43:55.764Z,6.50
2018-08-07T18:46:24.366Z,6.67
2018-08-07T18:48:53.185Z,7.20
2018-08-07T18:51:21.647Z,7.10
2018-08-07T18:53:50.253Z,6.47
2018-08-07T18:56:18.590Z,6.50
2018-08-07T18:58:46.954Z,6.43
2018-08-07T19:01:15.355Z,7.03
2018-08-07T19:03:43.887Z,7.07
2018-08-07T19:06:12.302Z,6.40
2018-08-07T19:08:40.669Z,6.10
2018-08-07T19:11:09.176Z,24.67
2018-08-07T19:13:37.557Z,6.60
2018-08-07T19:16:06.202Z,6.10
2018-08-07T19:18:34.663Z,6.80
2018-08-07T19:21:03.053Z,6.63
2018-08-07T19:23:31.442Z,6.27
2018-08-07T19:25:59.869Z,7.20
2018-08-07T19:28:28.251Z,7.00
2018-08-07T19:30:56.707Z,6.40
2018-08-07T19:33:25.093Z,6.03
2018-08-07T19:35:53.509Z,6.57
2018-08-07T19:38:21.903Z,7.23
2018-08-07T19:40:50.336Z,7.30
2018-08-07T19:43:18.753Z,5.97
2018-08-07T19:45:47.159Z,7.70
2018-08-07T19:48:16.185Z,6.77
2018-08-07T19:50:44.604Z,7.50
2018-08-07T19:53:12.934Z,7.77
2018-08-07T19:55:41.480Z,7.03
2018-08-07T19:58:09.765Z,7.40
2018-08-07T20:00:38.101Z,6.47
2018-08-07T20:03:06.508Z,6.60
2018-08-07T20:05:34.853Z,7.73
2018-08-07T20:08:03.316Z,7.30
2018-08-07T20:10:31.656Z,6.63
2018-08-07T20:13:00.078Z,6.60
2018-08-07T20:15:28.886Z,5.60
2018-08-07T20:17:57.660Z,5.90
2018-08-07T20:20:26.292Z,6.07
2018-08-07T20:22:55.157Z,6.73
2018-08-07T20:25:23.718Z,6.63
2018-08-07T20:27:52.085Z,6.10
2018-08-07T20:30:21.697Z,6.20
2018-08-07T20:32:51.391Z,5.83
2018-08-07T20:35:19.917Z,5.93
2018-08-07T20:38:26.655Z,5.90
2018-08-07T20:40:55.184Z,5.90
2018-08-07T20:43:23.526Z,5.70
2018-08-07T20:45:51.873Z,5.27
2018-08-07T20:48:20.230Z,5.60
2018-08-07T20:50:48.572Z,5.87
2018-08-07T20:53:17.099Z,6.07
2018-08-07T20:55:45.603Z,5.40
2018-08-07T20:58:13.936Z,5.83
2018-08-07T21:00:42.537Z,5.60
2018-08-07T21:03:10.876Z,6.37
2018-08-07T21:05:39.220Z,6.20
2018-08-07T21:08:07.846Z,5.90
2018-08-07T21:10:36.193Z,7.43
2018-08-07T21:13:04.525Z,7.20
2018-08-07T21:15:33.106Z,7.00
2018-08-07T21:18:01.441Z,6.90
2018-08-07T21:20:29.769Z,6.40
2018-08-07T21:22:58.150Z,6.50
2018-08-07T21:25:26.469Z,7.10
2018-08-07T21:27:57.309Z,6.40
2018-08-07T21:30:27.401Z,7.07
2018-08-07T21:32:55.732Z,6.60
2018-08-07T21:35:24.081Z,6.83
2018-08-07T21:37:52.435Z,7.33
2018-08-07T21:40:21.815Z,7.27
2018-08-07T21:42:51.401Z,8.20
2018-08-07T21:45:19.832Z,7.53
2018-08-07T21:47:48.333Z,7.60
2018-08-07T21:50:18.486Z,7.70
2018-08-07T21:52:46.920Z,8.30
2018-08-07T21:55:16.524Z,7.30
2018-08-07T21:57:44.916Z,7.60
2018-08-07T22:00:21.918Z,7.63
2018-08-07T22:02:50.296Z,7.70
2018-08-07T22:05:18.654Z,7.40
2018-08-07T22:07:46.998Z,7.77
2018-08-07T22:10:18.146Z,7.30
2018-08-07T22:12:46.767Z,7.77
2018-08-07T22:15:15.988Z,6.60
2018-08-07T22:17:44.581Z,7.40
2018-08-07T22:20:13.357Z,7.00
2018-08-07T22:22:41.763Z,8.00
2018-08-07T22:25:10.496Z,6.33
2018-08-07T22:27:38.919Z,7.03
2018-08-07T22:30:10.288Z,6.83
2018-08-07T22:32:38.704Z,7.40
2018-08-07T22:35:08.342Z,6.73
2018-08-07T22:37:37.004Z,6.27
2018-08-07T22:40:05.593Z,7.53
2018-08-07T22:42:34.371Z,7.40
2018-08-07T22:45:02.721Z,6.87
2018-08-07T22:47:31.145Z,7.37
2018-08-07T22:49:59.469Z,6.83
2018-08-07T22:52:27.847Z,7.47
2018-08-07T22:54:56.186Z,7.20
2018-08-07T22:57:24.765Z,7.27
2018-08-07T22:59:53.144Z,7.10
2018-08-07T23:02:21.438Z,7.00
2018-08-07T23:04:49.780Z,7.70
2018-08-07T23:07:18.113Z,7.13
2018-08-07T23:09:46.652Z,7.57
2018-08-07T23:12:15.003Z,7.80
2018-08-07T23:14:43.344Z,7.40
2018-08-07T23:17:11.729Z,6.90
2018-08-07T23:19:40.049Z,6.60
2018-08-07T23:22:08.462Z,7.23
2018-08-07T23:24:36.765Z,7.07
2018-08-07T23:27:05.260Z,6.90
2018-08-07T23:29:33.579Z,7.20
2018-08-07T23:32:01.955Z,7.50
2018-08-07T23:34:30.312Z,6.70
2018-08-07T23:36:58.626Z,7.87
2018-08-07T23:39:26.958Z,6.67
2018-08-07T23:41:55.382Z,7.30
2018-08-07T23:44:23.710Z,6.73
2018-08-07T23:46:52.077Z,7.60
2018-08-07T23:49:20.468Z,6.37
2018-08-07T23:51:48.785Z,6.63
2018-08-07T23:54:17.384Z,6.17
2018-08-07T23:56:45.720Z,6.30
2018-08-07T23:59:14.057Z,6.47
